OPRN weather

Benazir Bhutto International Airport
Islamabad, Punjab, Pakistan

Public forecast

Using degrees Celsius for public forecast. Weather courtesy of forecast.io.

METAR (pilot weather report)

Report is more than 6 hours old.

Retrieved 2019/02/26 18:00 UTC (21 days ago):

OPRN 261800Z 31004KT 7000 FEW050 07/04 Q1014 NOSIG RMK A2997

TAF (pilot weather forecast)

Forecast is more than 12 hours old.

Retrieved 2019/02/14 06:11 UTC (1 month ago):

TAF OPRN 140330Z 1406/1512 05010KT 3000 FEW010 FEW020TCU BKN030 OVC080 TEMPO 1406/1416 13010G25KT 2000 TSRA SCT010 FEW020CB BKN030 OVC070 BECMG 1412/1414 03006KT 5000 HZ/BR SCT040 BKN100 PROB30 TEMPO 1422/1504 2000 -RA BECMG 1506/1508 30010KT 7000 FEW040 SCT100